Time;durP1;ratioP1;P1;durP2;ratioP2;P2;SDS_P1;SDS_P2;PMS_P1;PMS_P2;Temp;Humidity;BMP_temperature;BMP_pressure;BME280_temperature;BME280_humidity;BME280_pressure;Samples;Min_cycle;Max_cycle;Signal;HPM_P1;HPM_P2
2022/12/24 00:01:03;;;;;;;34.15;11.68;;;9.40;99.90;;;;;;5009389;28;20045;-77
2022/12/24 00:03:30;;;;;;;29.33;13.32;;;9.40;99.90;;;;;;5026336;28;20317;-78
2022/12/24 00:05:57;;;;;;;36.42;14.05;;;9.40;99.90;;;;;;5014885;28;20045;-76
2022/12/24 00:08:24;;;;;;;26.83;11.57;;;9.40;99.90;;;;;;5042972;28;20041;-79
2022/12/24 00:10:51;;;;;;;38.53;12.90;;;9.40;99.90;;;;;;5008947;28;20091;-77
2022/12/24 00:13:19;;;;;;;29.30;10.70;;;9.30;99.90;;;;;;5008309;28;20042;-77
2022/12/24 00:15:45;;;;;;;29.83;14.15;;;9.30;99.90;;;;;;5016812;28;20202;-79
2022/12/24 00:18:12;;;;;;;23.15;12.18;;;9.20;99.90;;;;;;5015179;28;20482;-79
2022/12/24 00:20:39;;;;;;;33.20;14.45;;;9.20;99.90;;;;;;5017531;28;20045;-78
2022/12/24 00:23:06;;;;;;;41.45;16.10;;;9.20;99.90;;;;;;5029285;28;20081;-77
2022/12/24 00:25:33;;;;;;;29.02;15.10;;;9.20;99.90;;;;;;5015455;28;21657;-79
2022/12/24 00:28:00;;;;;;;31.30;15.93;;;9.20;99.90;;;;;;5014852;28;20262;-78
2022/12/24 00:30:27;;;;;;;40.88;17.55;;;9.10;99.90;;;;;;5015965;28;20068;-77
2022/12/24 00:32:53;;;;;;;27.75;16.38;;;9.20;99.90;;;;;;5026137;28;20106;-78
2022/12/24 00:35:20;;;;;;;38.75;18.08;;;9.10;99.90;;;;;;5014707;28;20108;-78
2022/12/24 00:37:48;;;;;;;51.13;22.23;;;9.10;99.90;;;;;;5020071;28;20060;-78
2022/12/24 00:40:15;;;;;;;46.83;20.95;;;9.10;99.90;;;;;;5035465;28;20048;-80
2022/12/24 00:42:43;;;;;;;50.97;20.65;;;9.10;99.90;;;;;;5036857;28;20132;-77
2022/12/24 00:45:11;;;;;;;39.25;17.40;;;9.10;99.90;;;;;;5013962;28;20048;-79
2022/12/24 00:47:38;;;;;;;56.78;20.13;;;9.10;99.90;;;;;;5015876;28;20042;-78
2022/12/24 00:50:05;;;;;;;57.13;22.80;;;9.00;99.90;;;;;;5027216;28;20140;-77
2022/12/24 00:52:32;;;;;;;50.13;20.38;;;9.00;99.90;;;;;;5025986;28;20037;-82
2022/12/24 00:54:59;;;;;;;49.97;21.83;;;9.10;99.90;;;;;;5011263;28;20113;-81
2022/12/24 00:57:26;;;;;;;40.60;20.48;;;9.10;99.90;;;;;;5010836;28;20045;-79
2022/12/24 00:59:52;;;;;;;46.22;20.92;;;9.00;99.90;;;;;;5035957;22;20088;-71
2022/12/24 01:02:19;;;;;;;44.55;19.27;;;9.10;99.90;;;;;;4993402;28;20030;-74
2022/12/24 01:07:31;;;;;;;59.30;23.20;;;9.10;99.90;;;;;;4986018;28;20607;-74
2022/12/24 01:09:58;;;;;;;43.13;20.88;;;9.00;99.90;;;;;;5002314;28;20133;-74
2022/12/24 01:12:25;;;;;;;57.78;21.40;;;9.00;99.90;;;;;;4987810;28;20144;-74
2022/12/24 01:14:51;;;;;;;39.50;17.67;;;9.00;99.90;;;;;;4994976;28;20141;-74
2022/12/24 01:17:18;;;;;;;52.13;20.88;;;9.00;99.90;;;;;;5001274;28;20057;-74
2022/12/24 01:19:45;;;;;;;50.13;20.60;;;9.00;99.90;;;;;;4994603;28;20552;-72
2022/12/24 01:22:11;;;;;;;49.72;17.67;;;9.00;99.90;;;;;;4992291;28;20057;-72
2022/12/24 01:24:40;;;;;;;53.97;20.13;;;9.00;99.90;;;;;;4993608;28;20158;-72
2022/12/24 01:27:07;;;;;;;45.65;18.23;;;8.90;99.90;;;;;;4990031;28;20050;-72
2022/12/24 01:29:34;;;;;;;44.78;17.77;;;8.90;99.90;;;;;;4981797;28;20106;-72
2022/12/24 01:32:00;;;;;;;43.95;18.80;;;8.90;99.90;;;;;;5016043;28;20044;-72
2022/12/24 01:34:27;;;;;;;36.45;15.18;;;8.90;99.90;;;;;;5000453;28;20054;-72
2022/12/24 01:36:54;;;;;;;30.02;13.23;;;8.90;99.90;;;;;;4984138;28;20038;-72
2022/12/24 01:39:20;;;;;;;39.03;13.57;;;8.90;99.90;;;;;;4993907;28;20531;-72
2022/12/24 01:44:38;;;;;;;39.05;14.38;;;8.90;99.90;;;;;;4990276;28;21024;-72
2022/12/24 01:47:26;;;;;;;38.47;13.70;;;8.90;99.90;;;;;;5003294;28;20482;-72
2022/12/24 01:49:57;;;;;;;43.78;13.32;;;8.90;99.90;;;;;;4993364;28;20065;-71
2022/12/24 01:52:28;;;;;;;39.40;14.15;;;8.80;99.90;;;;;;4976971;28;20381;-72
2022/12/24 01:55:03;;;;;;;41.38;14.88;;;8.90;99.90;;;;;;4997140;28;20087;-72
2022/12/24 01:57:40;;;;;;;28.77;13.57;;;8.80;99.90;;;;;;4986326;28;20307;-72
2022/12/24 02:00:10;;;;;;;47.22;16.23;;;8.90;99.90;;;;;;4994579;28;20066;-72
2022/12/24 02:02:42;;;;;;;42.25;17.48;;;8.80;99.90;;;;;;4974742;28;20046;-72
2022/12/24 02:05:15;;;;;;;42.97;16.75;;;8.90;99.90;;;;;;4987190;28;20220;-71
2022/12/24 02:07:42;;;;;;;40.30;16.50;;;8.80;99.90;;;;;;4984748;28;20493;-71
2022/12/24 02:10:12;;;;;;;40.17;15.07;;;8.80;99.90;;;;;;4988428;28;20033;-71
2022/12/24 02:12:40;;;;;;;38.17;13.90;;;8.80;99.90;;;;;;5010928;28;20431;-71
2022/12/24 02:15:10;;;;;;;50.78;16.65;;;8.70;99.90;;;;;;5001686;28;20084;-71
2022/12/24 02:18:09;;;;;;;38.30;15.57;;;8.80;99.90;;;;;;5022338;28;20034;-71
2022/12/24 02:20:55;;;;;;;47.47;17.63;;;8.80;99.90;;;;;;5009203;28;20049;-71
2022/12/24 02:23:55;;;;;;;40.40;15.13;;;8.80;99.90;;;;;;4987948;28;20042;-71
2022/12/24 02:26:56;;;;;;;43.15;16.42;;;8.70;99.90;;;;;;4995758;28;20045;-71
2022/12/24 02:29:41;;;;;;;46.22;15.23;;;8.80;99.90;;;;;;4984317;28;20050;-71
2022/12/24 02:32:11;;;;;;;40.40;15.00;;;8.80;99.90;;;;;;4996599;28;20043;-71
2022/12/24 02:34:46;;;;;;;39.17;13.93;;;8.70;99.90;;;;;;4994843;28;20042;-71
2022/12/24 02:37:19;;;;;;;31.25;12.70;;;8.70;99.90;;;;;;4985919;28;20068;-70
2022/12/24 02:39:51;;;;;;;44.88;14.93;;;8.70;99.90;;;;;;4992380;28;20049;-70
2022/12/24 02:42:24;;;;;;;42.58;12.70;;;8.70;99.90;;;;;;4985493;28;20404;-71
2022/12/24 02:45:01;;;;;;;33.53;11.98;;;8.70;99.90;;;;;;4993444;28;20097;-71
2022/12/24 02:47:30;;;;;;;37.33;13.13;;;8.80;99.90;;;;;;4990807;28;20075;-71
2022/12/24 02:50:01;;;;;;;35.50;12.32;;;8.80;99.90;;;;;;4990243;28;20184;-70
2022/12/24 02:52:36;;;;;;;31.20;10.35;;;8.80;99.90;;;;;;4988565;28;20734;-71
2022/12/24 02:55:09;;;;;;;35.50;10.85;;;8.80;99.90;;;;;;4990551;28;20236;-71
2022/12/24 02:58:04;;;;;;;34.97;10.95;;;8.80;99.90;;;;;;4996214;28;20073;-71
2022/12/24 03:00:53;;;;;;;38.45;9.90;;;8.80;99.90;;;;;;4993557;28;20052;-71
2022/12/24 03:03:35;;;;;;;29.20;9.70;;;8.80;99.90;;;;;;5005333;28;20517;-71
2022/12/24 03:06:18;;;;;;;33.70;10.95;;;8.80;99.90;;;;;;5015032;28;20038;-70
2022/12/24 03:09:07;;;;;;;33.00;10.88;;;8.80;99.90;;;;;;4994168;28;20200;-70
2022/12/24 03:11:37;;;;;;;42.70;9.55;;;8.80;99.90;;;;;;4994471;28;20421;-71
2022/12/24 03:14:03;;;;;;;41.88;10.05;;;8.80;99.90;;;;;;5002385;28;20121;-71
2022/12/24 03:16:30;;;;;;;40.40;11.95;;;8.80;99.90;;;;;;4998586;28;20053;-71
2022/12/24 03:18:58;;;;;;;29.02;9.57;;;8.80;99.90;;;;;;4994365;28;20050;-71
2022/12/24 03:21:32;;;;;;;42.92;9.35;;;8.70;99.90;;;;;;4994768;28;20064;-70
2022/12/24 03:23:59;;;;;;;56.23;10.60;;;8.70;99.90;;;;;;4999578;28;20052;-70
2022/12/24 03:26:28;;;;;;;40.28;12.60;;;8.70;99.90;;;;;;4995602;28;20041;-70
2022/12/24 03:28:55;;;;;;;34.15;10.70;;;8.70;99.90;;;;;;4999940;28;20045;-70
2022/12/24 03:31:22;;;;;;;34.20;11.50;;;8.70;99.90;;;;;;5010407;28;20358;-71
2022/12/24 03:33:49;;;;;;;33.83;10.82;;;8.70;99.90;;;;;;4998472;28;20046;-71
2022/12/24 03:36:17;;;;;;;34.38;9.25;;;8.60;99.90;;;;;;4983342;28;20033;-71
2022/12/24 03:38:43;;;;;;;49.65;9.93;;;8.60;99.90;;;;;;4982317;28;20050;-71
2022/12/24 03:41:10;;;;;;;39.08;9.07;;;8.70;99.90;;;;;;5029233;28;20176;-71
2022/12/24 03:43:37;;;;;;;27.77;8.93;;;8.70;99.90;;;;;;4998744;28;20125;-71
2022/12/24 03:46:07;;;;;;;36.90;10.60;;;8.70;99.90;;;;;;4999084;28;20046;-71
2022/12/24 03:48:35;;;;;;;36.67;9.68;;;8.60;99.90;;;;;;4996062;28;20584;-71
2022/12/24 03:51:03;;;;;;;38.92;9.48;;;8.70;99.90;;;;;;4998138;28;20050;-71
2022/12/24 03:53:30;;;;;;;42.03;10.50;;;8.70;99.90;;;;;;4997801;28;20635;-70
2022/12/24 03:55:57;;;;;;;32.17;8.50;;;8.70;99.90;;;;;;5000110;28;20049;-71
2022/12/24 03:58:23;;;;;;;46.85;10.30;;;8.70;99.90;;;;;;4991091;28;20042;-71
2022/12/24 04:00:52;;;;;;;33.70;7.55;;;8.70;99.90;;;;;;4996984;28;20591;-70
2022/12/24 04:03:19;;;;;;;28.70;8.80;;;8.70;99.90;;;;;;4979603;28;20050;-71
2022/12/24 04:05:46;;;;;;;30.13;8.50;;;8.60;99.90;;;;;;4997804;28;20056;-71
2022/12/24 04:08:13;;;;;;;22.92;8.43;;;8.70;99.90;;;;;;4995547;28;20038;-69
2022/12/24 04:10:39;;;;;;;34.92;9.27;;;8.60;99.90;;;;;;4996027;28;20042;-70
2022/12/24 04:13:06;;;;;;;41.80;10.75;;;8.70;99.90;;;;;;4998373;28;20042;-71
2022/12/24 04:15:33;;;;;;;28.48;9.93;;;8.70;99.90;;;;;;4993651;28;20262;-71
2022/12/24 04:17:59;;;;;;;40.72;11.02;;;8.60;99.90;;;;;;5000359;28;20060;-70
2022/12/24 04:20:26;;;;;;;33.67;10.57;;;8.60;99.90;;;;;;4994575;28;20376;-71
2022/12/24 04:22:53;;;;;;;29.15;9.57;;;8.70;99.90;;;;;;4999454;28;20069;-71
2022/12/24 04:25:19;;;;;;;30.45;10.10;;;8.50;99.90;;;;;;4987690;28;20054;-70
2022/12/24 04:27:46;;;;;;;26.02;9.27;;;8.60;99.90;;;;;;4998015;28;20137;-70
2022/12/24 04:30:13;;;;;;;33.63;10.95;;;8.60;99.90;;;;;;4991060;28;20049;-70
2022/12/24 04:32:39;;;;;;;35.60;11.02;;;8.60;99.90;;;;;;4999364;28;20045;-71
2022/12/24 04:35:06;;;;;;;34.47;10.10;;;8.60;99.90;;;;;;4998184;28;20337;-71
2022/12/24 04:37:34;;;;;;;45.30;10.88;;;8.60;99.90;;;;;;4995823;28;20050;-70
2022/12/24 04:40:00;;;;;;;49.78;12.80;;;8.60;99.90;;;;;;5002542;28;20046;-70
2022/12/24 04:42:27;;;;;;;21.40;8.80;;;8.50;99.90;;;;;;4996259;28;20044;-70
2022/12/24 04:44:53;;;;;;;36.75;10.52;;;8.50;99.90;;;;;;4991501;28;20052;-70
2022/12/24 04:47:20;;;;;;;36.97;10.35;;;8.50;99.90;;;;;;4993328;28;20046;-70
2022/12/24 04:49:47;;;;;;;38.35;9.70;;;8.50;99.90;;;;;;4996722;28;20060;-70
2022/12/24 04:52:13;;;;;;;39.25;11.70;;;8.50;99.90;;;;;;4996651;28;20044;-70
2022/12/24 04:54:40;;;;;;;30.23;9.75;;;8.50;99.90;;;;;;5003704;28;20042;-70
2022/12/24 04:57:07;;;;;;;30.88;9.23;;;8.50;99.90;;;;;;4995412;28;20077;-70
2022/12/24 04:59:33;;;;;;;34.45;10.50;;;8.50;99.90;;;;;;4992465;28;20057;-70
2022/12/24 05:02:00;;;;;;;37.95;10.65;;;8.50;99.90;;;;;;4996601;28;20508;-70
2022/12/24 05:04:27;;;;;;;30.52;9.10;;;8.50;99.90;;;;;;4995176;28;20296;-70
2022/12/24 05:06:53;;;;;;;31.88;9.40;;;8.40;99.90;;;;;;4998141;28;20229;-70
2022/12/24 05:09:20;;;;;;;37.63;11.38;;;8.40;99.90;;;;;;4994166;28;20142;-70
2022/12/24 05:11:47;;;;;;;37.47;9.48;;;8.40;99.90;;;;;;4997173;28;20053;-70
2022/12/24 05:14:13;;;;;;;37.05;9.30;;;8.40;99.90;;;;;;4995508;28;20044;-70
2022/12/24 05:16:40;;;;;;;31.23;10.05;;;8.30;99.90;;;;;;4995110;28;20220;-70
2022/12/24 05:19:07;;;;;;;48.50;11.05;;;8.40;99.90;;;;;;4996440;28;20053;-70
2022/12/24 05:21:34;;;;;;;37.13;10.20;;;8.40;99.90;;;;;;4992461;28;20448;-70
2022/12/24 05:26:49;;;;;;;32.40;9.80;;;8.30;99.90;;;;;;4999537;28;20524;-70
2022/12/24 05:29:16;;;;;;;42.30;10.35;;;8.30;99.90;;;;;;4998701;28;20113;-70
2022/12/24 05:31:44;;;;;;;41.92;10.13;;;8.30;99.90;;;;;;4995570;28;20046;-70
2022/12/24 05:34:12;;;;;;;41.55;10.93;;;8.30;99.90;;;;;;4988982;28;20042;-70
2022/12/24 05:36:39;;;;;;;41.10;10.68;;;8.30;99.90;;;;;;5008678;28;20053;-71
2022/12/24 05:39:07;;;;;;;40.90;13.32;;;8.30;99.90;;;;;;4997133;28;20078;-70
2022/12/24 05:41:41;;;;;;;41.63;11.25;;;8.30;99.90;;;;;;4991563;28;20133;-71
2022/12/24 05:44:07;;;;;;;41.30;11.25;;;8.40;99.90;;;;;;4979717;28;20299;-70
2022/12/24 05:46:34;;;;;;;50.17;10.93;;;8.40;99.90;;;;;;4986517;28;20530;-70
2022/12/24 05:49:01;;;;;;;31.50;10.35;;;8.30;99.90;;;;;;5000342;28;20042;-71
2022/12/24 05:51:28;;;;;;;45.92;11.77;;;8.40;99.90;;;;;;4988114;28;20240;-70
2022/12/24 05:53:54;;;;;;;41.05;11.82;;;8.30;99.90;;;;;;4994691;28;20236;-71
2022/12/24 05:56:23;;;;;;;45.67;12.85;;;8.30;99.90;;;;;;4993451;28;20550;-70
2022/12/24 05:58:50;;;;;;;45.67;15.02;;;8.30;99.90;;;;;;4994881;28;20046;-70
2022/12/24 06:01:18;;;;;;;49.10;12.18;;;8.30;99.90;;;;;;4989074;28;20065;-70
2022/12/24 06:03:45;;;;;;;43.78;11.93;;;8.30;99.90;;;;;;4993133;28;20419;-70
2022/12/24 06:06:14;;;;;;;50.83;12.48;;;8.30;99.90;;;;;;4989400;28;20029;-70
2022/12/24 06:08:41;;;;;;;42.38;11.27;;;8.40;99.90;;;;;;4991575;28;20053;-70
2022/12/24 06:11:11;;;;;;;42.17;12.88;;;8.40;99.90;;;;;;4978066;28;20385;-70
2022/12/24 06:13:39;;;;;;;43.47;11.95;;;8.40;99.90;;;;;;4993154;28;20046;-70
2022/12/24 06:16:08;;;;;;;32.72;10.25;;;8.40;99.90;;;;;;4992888;28;20126;-70
2022/12/24 06:18:35;;;;;;;42.45;11.98;;;8.30;99.90;;;;;;4988078;28;20977;-71
2022/12/24 06:21:03;;;;;;;39.03;11.75;;;8.40;99.90;;;;;;5000015;28;20138;-70
2022/12/24 06:23:33;;;;;;;46.63;12.30;;;8.40;99.90;;;;;;4992575;28;20069;-70
2022/12/24 06:26:00;;;;;;;51.83;12.85;;;8.40;99.90;;;;;;4976859;28;20034;-70
2022/12/24 06:28:28;;;;;;;52.03;11.70;;;8.40;99.90;;;;;;4974266;28;20099;-70
2022/12/24 06:30:55;;;;;;;40.05;12.32;;;8.40;99.90;;;;;;4990593;28;20045;-70
2022/12/24 06:33:29;;;;;;;49.40;13.68;;;8.40;99.90;;;;;;4994088;28;20041;-71
2022/12/24 06:35:55;;;;;;;51.60;13.85;;;8.30;99.90;;;;;;4977502;28;22391;-71
2022/12/24 06:38:22;;;;;;;55.05;14.75;;;8.30;99.90;;;;;;4991992;28;20608;-71
2022/12/24 06:40:49;;;;;;;50.10;13.27;;;8.30;99.90;;;;;;4991128;28;20054;-71
2022/12/24 06:43:15;;;;;;;54.60;14.05;;;8.20;99.90;;;;;;4993964;28;20035;-70
2022/12/24 06:45:46;;;;;;;43.03;13.35;;;8.20;99.90;;;;;;4997694;28;20069;-71
2022/12/24 06:48:14;;;;;;;52.60;14.38;;;8.20;99.90;;;;;;4998285;28;20073;-71
2022/12/24 06:50:41;;;;;;;54.70;14.07;;;8.20;99.90;;;;;;4997097;28;20041;-71
2022/12/24 06:53:09;;;;;;;47.45;13.27;;;8.20;99.90;;;;;;4998979;28;20427;-71
2022/12/24 06:55:36;;;;;;;49.10;12.63;;;8.20;99.90;;;;;;4982444;28;20419;-71
2022/12/24 06:58:03;;;;;;;63.78;14.68;;;8.20;99.90;;;;;;4995689;28;20120;-71
2022/12/24 07:00:29;;;;;;;62.72;15.02;;;8.20;99.90;;;;;;4988905;28;20238;-71
2022/12/24 07:02:56;;;;;;;54.78;15.00;;;8.10;99.90;;;;;;4979772;28;20066;-71
2022/12/24 07:05:23;;;;;;;42.72;13.15;;;8.20;99.90;;;;;;4993267;28;20042;-71
2022/12/24 07:07:50;;;;;;;49.17;13.32;;;8.10;99.90;;;;;;5000622;28;20549;-71
2022/12/24 07:10:18;;;;;;;47.95;14.60;;;8.20;99.90;;;;;;5000953;28;20034;-72
2022/12/24 07:12:45;;;;;;;37.40;13.20;;;8.20;99.90;;;;;;4995016;28;20068;-72
2022/12/24 07:15:13;;;;;;;55.13;13.73;;;8.20;99.90;;;;;;4993401;28;20049;-72
2022/12/24 07:17:40;;;;;;;55.15;14.25;;;8.20;99.90;;;;;;5028398;28;20133;-72
2022/12/24 07:20:10;;;;;;;58.67;16.50;;;8.20;99.90;;;;;;4993466;28;20170;-72
2022/12/24 07:22:37;;;;;;;52.13;15.60;;;8.20;99.90;;;;;;4996068;28;20524;-72
2022/12/24 07:25:04;;;;;;;55.45;16.02;;;8.20;99.90;;;;;;4999072;28;20046;-72
2022/12/24 07:27:30;;;;;;;50.13;17.33;;;8.20;99.90;;;;;;4996246;28;20065;-73
2022/12/24 07:29:57;;;;;;;50.45;15.63;;;8.20;99.90;;;;;;4995154;28;20203;-73
2022/12/24 07:32:24;;;;;;;55.38;17.23;;;8.20;99.90;;;;;;4991320;28;20034;-73
2022/12/24 07:34:50;;;;;;;47.50;16.02;;;8.30;99.90;;;;;;4998004;28;20399;-73
2022/12/24 07:37:17;;;;;;;51.05;15.32;;;8.30;99.90;;;;;;5016033;28;20050;-72
2022/12/24 07:39:44;;;;;;;48.50;16.55;;;8.30;99.90;;;;;;4998870;28;20053;-72
2022/12/24 07:42:11;;;;;;;60.90;18.80;;;8.30;99.90;;;;;;4997132;28;20132;-72
2022/12/24 07:44:38;;;;;;;66.43;16.35;;;8.30;99.90;;;;;;4993288;28;20489;-72
2022/12/24 07:47:05;;;;;;;54.70;16.92;;;8.30;99.90;;;;;;5019090;28;20046;-72
2022/12/24 07:49:32;;;;;;;62.35;16.38;;;8.30;99.90;;;;;;4990771;28;20195;-72
2022/12/24 07:51:58;;;;;;;35.85;13.05;;;8.40;99.90;;;;;;4993274;28;20492;-72
2022/12/24 07:54:25;;;;;;;55.13;18.13;;;8.40;99.90;;;;;;5028391;28;20037;-73
2022/12/24 07:56:52;;;;;;;56.25;15.23;;;8.40;99.90;;;;;;5022465;28;20125;-73
2022/12/24 07:59:19;;;;;;;52.35;17.55;;;8.40;99.90;;;;;;5017336;28;20072;-73
2022/12/24 08:01:46;;;;;;;39.53;13.30;;;8.50;99.90;;;;;;4996537;28;20050;-72
2022/12/24 08:04:13;;;;;;;51.72;14.93;;;8.50;99.90;;;;;;4993790;28;20049;-72
2022/12/24 08:06:40;;;;;;;59.13;14.73;;;8.50;99.90;;;;;;5012062;28;20111;-72
2022/12/24 08:09:06;;;;;;;34.63;13.02;;;8.50;99.90;;;;;;4990319;28;20080;-72
2022/12/24 08:11:33;;;;;;;31.63;11.77;;;8.50;99.90;;;;;;5000315;28;20041;-72
2022/12/24 08:14:00;;;;;;;43.38;11.88;;;8.60;99.90;;;;;;4997884;28;20805;-72
2022/12/24 08:16:26;;;;;;;44.47;13.55;;;8.60;99.90;;;;;;4996223;28;20198;-72
2022/12/24 08:18:53;;;;;;;42.70;12.98;;;8.60;99.90;;;;;;4981220;28;20075;-73
2022/12/24 08:21:20;;;;;;;42.63;12.32;;;8.60;99.90;;;;;;5018837;28;20668;-72
2022/12/24 08:23:46;;;;;;;34.00;11.43;;;8.70;99.90;;;;;;4996841;28;20049;-72
2022/12/24 08:26:13;;;;;;;36.20;12.75;;;8.80;99.90;;;;;;4993670;28;20069;-72
2022/12/24 08:28:40;;;;;;;31.45;11.95;;;8.70;99.90;;;;;;4992591;28;20251;-72
2022/12/24 08:31:07;;;;;;;39.20;11.95;;;8.70;99.90;;;;;;4992601;28;20048;-72
2022/12/24 08:33:34;;;;;;;48.08;14.38;;;8.80;99.90;;;;;;4990858;28;20042;-72
2022/12/24 08:36:01;;;;;;;46.25;12.48;;;8.90;99.90;;;;;;4988547;28;20658;-72
2022/12/24 08:38:28;;;;;;;40.70;10.85;;;8.80;99.90;;;;;;5023556;28;20046;-72
2022/12/24 08:40:55;;;;;;;40.17;14.63;;;8.90;99.90;;;;;;4992163;28;20048;-72
2022/12/24 08:43:24;;;;;;;39.28;13.23;;;8.90;99.90;;;;;;4995509;28;20471;-71
2022/12/24 08:45:50;;;;;;;36.40;10.52;;;8.90;99.90;;;;;;4991410;28;20136;-71
2022/12/24 08:48:17;;;;;;;39.30;13.60;;;8.90;99.90;;;;;;4994732;28;20046;-71
2022/12/24 08:50:44;;;;;;;39.30;13.32;;;9.00;99.90;;;;;;4977275;28;20160;-71
2022/12/24 08:53:11;;;;;;;31.92;9.40;;;9.10;99.90;;;;;;4997958;28;20066;-71
2022/12/24 08:55:38;;;;;;;37.60;11.23;;;9.10;99.90;;;;;;4994269;28;20037;-71
2022/12/24 08:58:05;;;;;;;37.72;11.00;;;9.20;99.90;;;;;;4987320;28;20054;-71
2022/12/24 09:00:32;;;;;;;33.00;10.60;;;9.20;99.90;;;;;;4992558;28;20157;-71
2022/12/24 09:02:58;;;;;;;23.02;8.95;;;9.10;99.90;;;;;;4986945;28;20057;-71
2022/12/24 09:05:25;;;;;;;44.65;10.32;;;9.10;99.90;;;;;;4993205;28;20069;-71
2022/12/24 09:07:52;;;;;;;29.13;9.02;;;9.00;99.90;;;;;;4996633;28;20057;-71
2022/12/24 09:10:19;;;;;;;32.00;9.27;;;9.10;99.90;;;;;;5018344;28;20264;-70
2022/12/24 09:12:46;;;;;;;28.67;10.88;;;9.10;99.90;;;;;;4997684;28;20056;-71
2022/12/24 09:15:13;;;;;;;25.23;9.77;;;9.10;99.90;;;;;;4995166;28;20117;-71
2022/12/24 09:17:40;;;;;;;40.40;11.88;;;9.10;99.90;;;;;;4997978;28;20102;-71
2022/12/24 09:20:07;;;;;;;34.70;10.68;;;9.00;99.90;;;;;;4994848;28;20268;-71
2022/12/24 09:22:36;;;;;;;37.38;11.60;;;9.00;99.90;;;;;;4990144;28;20101;-72
2022/12/24 09:25:05;;;;;;;27.55;11.05;;;8.90;99.90;;;;;;4992750;28;20133;-72
2022/12/24 09:27:31;;;;;;;34.45;10.48;;;8.80;99.90;;;;;;5020939;28;20118;-72
2022/12/24 09:29:58;;;;;;;36.35;11.35;;;8.70;99.90;;;;;;4992647;28;20078;-72
2022/12/24 09:32:25;;;;;;;48.88;10.27;;;8.70;99.90;;;;;;4992479;28;20309;-72
2022/12/24 09:34:51;;;;;;;48.08;13.05;;;8.70;99.90;;;;;;4992494;28;20080;-72
2022/12/24 09:37:18;;;;;;;32.72;10.45;;;8.70;99.90;;;;;;5001749;28;20070;-73
2022/12/24 09:39:45;;;;;;;39.80;9.45;;;8.70;99.90;;;;;;4996826;28;20153;-73
2022/12/24 09:42:33;;;;;;;44.45;13.25;;;8.70;99.90;;;;;;4996614;28;20072;-72
2022/12/24 09:45:27;;;;;;;40.95;11.25;;;8.60;99.90;;;;;;5027654;28;20054;-72
2022/12/24 09:48:08;;;;;;;40.42;12.40;;;8.70;99.90;;;;;;4988499;28;20077;-72
2022/12/24 09:50:34;;;;;;;42.30;12.13;;;8.70;99.90;;;;;;4986286;28;20069;-72
2022/12/24 09:53:06;;;;;;;46.95;12.50;;;8.70;99.90;;;;;;4997493;28;20057;-72
2022/12/24 09:55:40;;;;;;;36.08;11.95;;;8.70;99.90;;;;;;5022970;28;20290;-72
2022/12/24 09:58:17;;;;;;;31.13;10.15;;;8.80;99.90;;;;;;4992741;28;20054;-72
2022/12/24 10:00:44;;;;;;;39.28;13.55;;;8.80;99.90;;;;;;4990944;28;20519;-72
2022/12/24 10:03:17;;;;;;;38.90;15.35;;;8.80;99.90;;;;;;4976522;28;20476;-71
2022/12/24 10:05:50;;;;;;;39.65;11.75;;;8.80;99.90;;;;;;5001842;28;20050;-72
2022/12/24 10:08:33;;;;;;;27.75;11.68;;;8.90;99.90;;;;;;4988853;28;20496;-73
2022/12/24 10:11:05;;;;;;;38.70;12.15;;;8.80;99.90;;;;;;4991406;28;20499;-73
2022/12/24 10:13:51;;;;;;;36.58;11.40;;;8.90;99.90;;;;;;5001532;28;20221;-73
2022/12/24 10:16:18;;;;;;;46.05;16.42;;;8.90;99.90;;;;;;4989056;28;20125;-73
2022/12/24 10:19:00;;;;;;;45.88;14.80;;;8.90;99.90;;;;;;4996206;28;20057;-73
2022/12/24 10:21:43;;;;;;;39.67;13.70;;;8.80;99.90;;;;;;4990267;28;20164;-74
2022/12/24 10:24:29;;;;;;;33.42;13.18;;;8.80;99.90;;;;;;4993357;28;20132;-73
2022/12/24 10:27:05;;;;;;;31.05;11.85;;;8.80;99.90;;;;;;4987921;28;20137;-73
2022/12/24 10:29:36;;;;;;;39.38;12.27;;;8.80;99.90;;;;;;4989926;28;20050;-73
2022/12/24 10:32:08;;;;;;;35.65;13.65;;;8.80;99.90;;;;;;4992173;28;20057;-73
2022/12/24 10:34:52;;;;;;;41.05;12.68;;;8.90;99.90;;;;;;5006999;28;20081;-73
2022/12/24 10:37:23;;;;;;;34.13;11.15;;;9.00;99.90;;;;;;4991729;28;20502;-73
2022/12/24 10:39:51;;;;;;;24.77;10.18;;;9.20;99.90;;;;;;4995538;28;20464;-72
2022/12/24 10:42:20;;;;;;;35.03;13.52;;;9.20;99.90;;;;;;4991343;28;20487;-72
2022/12/24 10:44:50;;;;;;;32.50;12.77;;;9.30;99.90;;;;;;4988258;28;20073;-73
2022/12/24 10:47:20;;;;;;;40.47;12.93;;;9.40;99.90;;;;;;4991734;28;20049;-72
2022/12/24 10:49:56;;;;;;;38.17;12.40;;;9.40;99.90;;;;;;4993772;28;20081;-72
2022/12/24 10:52:27;;;;;;;37.25;13.02;;;9.30;99.90;;;;;;4988106;28;20060;-73
2022/12/24 10:55:15;;;;;;;32.40;12.55;;;9.40;99.90;;;;;;4993534;28;20046;-72
2022/12/24 10:57:55;;;;;;;36.72;14.10;;;9.30;99.90;;;;;;4952275;28;21207;-72
2022/12/24 11:00:23;;;;;;;34.47;13.05;;;9.40;99.90;;;;;;4969501;28;20042;-72
2022/12/24 11:03:11;;;;;;;33.72;12.40;;;9.40;99.90;;;;;;4971113;28;20081;-72
2022/12/24 11:05:39;;;;;;;31.42;12.13;;;9.40;99.90;;;;;;5002909;28;20164;-72
2022/12/24 11:08:16;;;;;;;34.25;13.05;;;9.40;99.90;;;;;;4972819;28;20048;-72
2022/12/24 11:10:54;;;;;;;39.50;16.33;;;9.40;99.90;;;;;;4983424;28;20046;-73
2022/12/24 11:13:33;;;;;;;34.53;13.35;;;9.40;99.90;;;;;;4970174;28;20042;-73
2022/12/24 11:16:07;;;;;;;36.53;13.25;;;9.40;99.90;;;;;;4969859;28;20038;-73
2022/12/24 11:18:37;;;;;;;29.23;11.25;;;9.40;99.90;;;;;;4973298;28;20073;-72
2022/12/24 11:21:05;;;;;;;35.00;14.15;;;9.40;99.90;;;;;;4972379;28;20058;-72
2022/12/24 11:23:31;;;;;;;31.95;13.50;;;9.40;99.90;;;;;;4969720;28;20492;-71
2022/12/24 11:25:59;;;;;;;26.98;14.50;;;9.40;99.90;;;;;;4972893;28;20054;-71
2022/12/24 11:28:28;;;;;;;36.15;15.63;;;9.50;99.90;;;;;;4971234;28;20123;-71
2022/12/24 11:31:05;;;;;;;39.40;12.90;;;9.50;99.90;;;;;;4972203;28;20057;-71
2022/12/24 11:33:49;;;;;;;25.20;12.15;;;9.50;99.90;;;;;;4974656;28;20056;-72
2022/12/24 11:36:22;;;;;;;34.10;15.10;;;9.50;99.90;;;;;;4975847;28;20404;-71
2022/12/24 11:38:56;;;;;;;44.58;19.63;;;9.40;99.90;;;;;;4975163;28;20464;-71
2022/12/24 11:41:24;;;;;;;32.20;13.90;;;9.40;99.90;;;;;;4975005;28;20049;-71
2022/12/24 11:44:02;;;;;;;49.83;13.98;;;9.60;99.90;;;;;;4976806;28;20050;-71
2022/12/24 11:46:42;;;;;;;39.33;15.23;;;9.60;99.90;;;;;;4974296;28;20559;-71
2022/12/24 11:49:16;;;;;;;45.25;15.90;;;9.80;99.90;;;;;;4970893;28;20038;-71
2022/12/24 11:52:08;;;;;;;32.50;15.90;;;9.90;99.90;;;;;;4976689;28;20030;-71
2022/12/24 11:55:04;;;;;;;31.83;17.27;;;9.90;99.90;;;;;;4973461;28;20050;-71
2022/12/24 11:57:52;;;;;;;36.05;17.13;;;9.90;99.90;;;;;;4974121;28;20125;-71
2022/12/24 12:00:19;;;;;;;43.67;17.17;;;9.90;99.90;;;;;;4974996;28;20046;-71
2022/12/24 12:02:48;;;;;;;42.40;17.85;;;9.80;99.90;;;;;;4973699;28;20060;-71
2022/12/24 12:05:19;;;;;;;42.00;18.70;;;9.70;99.90;;;;;;5004706;28;20062;-71
2022/12/24 12:07:50;;;;;;;30.92;15.40;;;9.70;99.90;;;;;;4988566;28;20062;-71
2022/12/24 12:10:24;;;;;;;50.67;16.83;;;9.70;99.90;;;;;;4974606;28;20042;-71
2022/12/24 12:13:00;;;;;;;44.72;16.48;;;9.70;99.90;;;;;;4976729;28;20061;-70
2022/12/24 12:15:34;;;;;;;36.85;14.85;;;9.70;99.90;;;;;;4976409;28;20041;-71
2022/12/24 12:18:12;;;;;;;42.85;17.45;;;9.70;99.90;;;;;;4976597;28;20514;-72
2022/12/24 12:20:51;;;;;;;37.63;15.02;;;9.70;99.90;;;;;;4973281;28;20247;-71
2022/12/24 12:23:28;;;;;;;41.63;15.88;;;9.70;99.90;;;;;;4973316;28;20041;-71
2022/12/24 12:26:18;;;;;;;34.63;14.35;;;9.60;99.90;;;;;;4988314;28;20077;-71
2022/12/24 12:29:08;;;;;;;47.97;15.15;;;9.70;99.90;;;;;;4974683;28;20054;-71
2022/12/24 12:31:44;;;;;;;32.80;14.85;;;9.70;99.90;;;;;;4972990;28;20047;-71
2022/12/24 12:34:15;;;;;;;35.33;15.35;;;9.60;99.90;;;;;;4970818;28;20240;-71
2022/12/24 12:36:47;;;;;;;44.30;15.88;;;9.50;99.90;;;;;;4972433;28;20054;-71
2022/12/24 12:39:13;;;;;;;37.25;18.65;;;9.50;99.90;;;;;;4974741;28;20229;-71
2022/12/24 12:42:18;;;;;;;42.72;17.77;;;9.50;99.90;;;;;;4996649;28;20039;-71
2022/12/24 12:45:00;;;;;;;31.63;12.90;;;9.50;99.90;;;;;;4958052;28;20050;-71
2022/12/24 12:48:08;;;;;;;52.50;18.85;;;9.50;99.90;;;;;;4971272;28;20073;-71
2022/12/24 12:50:43;;;;;;;43.38;15.73;;;9.60;99.90;;;;;;4960064;28;20114;-71
2022/12/24 12:53:13;;;;;;;43.58;17.95;;;9.70;99.90;;;;;;4949856;28;20050;-71
2022/12/24 12:56:00;;;;;;;51.67;17.20;;;9.80;99.90;;;;;;4971912;28;20042;-72
2022/12/24 12:58:36;;;;;;;36.78;16.15;;;9.70;99.90;;;;;;4969933;28;20544;-71
2022/12/24 13:01:23;;;;;;;35.25;15.10;;;9.70;99.90;;;;;;4975998;28;20046;-71
2022/12/24 13:04:25;;;;;;;34.75;15.07;;;9.60;99.90;;;;;;4974291;28;20129;-71